Time;durP1;ratioP1;P1;durP2;ratioP2;P2;SDS_P1;SDS_P2;PMS_P1;PMS_P2;Temp;Humidity;BMP_temperature;BMP_pressure;BME280_temperature;BME280_humidity;BME280_pressure;Samples;Min_cycle;Max_cycle;Signal;HPM_P1;HPM_P2
2021/05/24 00:00:57;;;;;;;;;;;7.20;99.90;;;;;;5025138;28;20033;-63
2021/05/24 00:03:23;;;;;;;1.70;0.80;;;7.30;99.90;;;;;;5025583;28;19921;-62
2021/05/24 00:05:49;;;;;;;;;;;7.30;99.90;;;;;;5026773;28;20053;-63
2021/05/24 00:08:14;;;;;;;2.80;0.70;;;7.20;99.90;;;;;;5026045;28;19921;-63
2021/05/24 00:10:41;;;;;;;;;;;7.30;99.90;;;;;;5026135;28;20041;-63
2021/05/24 00:13:08;;;;;;;1.52;0.80;;;7.20;99.90;;;;;;5025475;28;19921;-62
2021/05/24 00:15:40;;;;;;;2.55;0.73;;;7.30;99.90;;;;;;5025237;28;20091;-63
2021/05/24 00:18:06;;;;;;;4.75;0.77;;;7.30;99.90;;;;;;5017055;28;20038;-63
2021/05/24 00:20:48;;;;;;;5.75;1.00;;;7.40;99.90;;;;;;5012299;28;20073;-63
2021/05/24 00:23:13;;;;;;;4.25;0.85;;;7.40;99.90;;;;;;5012699;28;20042;-63
2021/05/24 00:25:39;;;;;;;;;;;7.40;99.90;;;;;;5012835;28;20045;-63
2021/05/24 00:28:07;;;;;;;3.53;1.00;;;7.40;99.90;;;;;;5012408;28;19923;-63
2021/05/24 00:30:33;;;;;;;5.40;1.00;;;7.40;99.90;;;;;;5011773;28;20452;-63
2021/05/24 00:33:03;;;;;;;2.25;0.82;;;7.50;99.90;;;;;;5012451;28;20046;-63
2021/05/24 00:35:29;;;;;;;2.95;0.77;;;7.50;99.90;;;;;;5011661;28;20038;-63
2021/05/24 00:37:54;;;;;;;;;;;7.50;99.90;;;;;;5011923;28;20095;-63
2021/05/24 00:40:21;;;;;;;1.98;0.80;;;7.40;99.90;;;;;;5012591;28;20369;-63
2021/05/24 00:42:46;;;;;;;3.47;0.77;;;7.50;99.90;;;;;;5011023;28;20038;-63
2021/05/24 00:45:12;;;;;;;;;;;7.50;99.90;;;;;;5011384;28;20134;-63
2021/05/24 00:47:38;;;;;;;1.98;0.80;;;7.50;99.90;;;;;;5011453;28;20332;-63
2021/05/24 00:50:05;;;;;;;2.20;0.90;;;7.50;99.90;;;;;;5012022;28;20045;-63
2021/05/24 00:52:31;;;;;;;5.65;0.98;;;7.50;99.90;;;;;;5011920;28;20045;-63
2021/05/24 00:54:56;;;;;;;;;;;7.50;99.90;;;;;;5011656;28;20045;-63
2021/05/24 00:57:22;;;;;;;3.50;1.10;;;7.50;99.90;;;;;;5011911;28;20437;-64
2021/05/24 00:59:48;;;;;;;;;;;7.50;99.90;;;;;;5012026;28;20488;-63
2021/05/24 01:02:13;;;;;;;1.98;0.77;;;7.60;99.90;;;;;;5010657;28;19918;-63
2021/05/24 01:04:39;;;;;;;;;;;7.50;99.90;;;;;;5011393;28;20161;-63
2021/05/24 01:07:05;;;;;;;9.85;1.00;;;7.50;99.90;;;;;;5011187;28;19921;-64
2021/05/24 01:09:30;;;;;;;;;;;7.50;99.90;;;;;;5012351;28;20045;-63
2021/05/24 01:11:56;;;;;;;2.15;0.90;;;7.50;99.90;;;;;;5010957;28;19917;-63
2021/05/24 01:14:22;;;;;;;4.43;1.20;;;7.50;99.90;;;;;;5010287;28;20053;-66
2021/05/24 01:16:51;;;;;;;;;;;7.50;99.90;;;;;;5034061;28;20136;-68
2021/05/24 01:19:18;;;;;;;3.15;0.80;;;7.50;99.90;;;;;;5042631;28;19942;-66
2021/05/24 01:21:43;;;;;;;3.90;0.88;;;7.40;99.90;;;;;;5050559;28;20041;-62
2021/05/24 01:24:09;;;;;;;;;;;7.50;99.90;;;;;;5047077;28;20064;-67
2021/05/24 01:26:35;;;;;;;2.67;0.80;;;7.40;99.90;;;;;;5037937;28;19933;-62
2021/05/24 01:29:00;;;;;;;;;;;7.50;99.90;;;;;;5039020;28;20111;-61
2021/05/24 01:31:26;;;;;;;4.82;0.85;;;7.20;99.90;;;;;;5041165;28;19925;-63
2021/05/24 01:33:52;;;;;;;;;;;7.20;99.90;;;;;;5046782;28;20062;-64
2021/05/24 01:36:18;;;;;;;2.00;0.88;;;7.30;99.90;;;;;;5050183;28;19916;-67
2021/05/24 01:38:43;;;;;;;;;;;7.20;99.90;;;;;;5051245;28;20120;-62
2021/05/24 01:41:11;;;;;;;5.13;0.80;;;7.30;99.90;;;;;;5043692;28;19924;-63
2021/05/24 01:43:38;;;;;;;5.88;1.15;;;7.30;99.90;;;;;;5041323;28;20506;-62
2021/05/24 01:46:05;;;;;;;3.20;0.80;;;7.30;99.90;;;;;;5029917;28;20045;-62
2021/05/24 01:48:33;;;;;;;1.33;0.47;;;7.20;99.90;;;;;;5030110;28;20037;-63
2021/05/24 01:50:59;;;;;;;3.50;0.75;;;7.20;99.90;;;;;;5038645;28;20045;-62
2021/05/24 01:53:24;;;;;;;;;;;7.30;99.90;;;;;;5050861;28;20140;-62
2021/05/24 01:55:50;;;;;;;3.78;0.60;;;7.30;99.90;;;;;;5049986;28;19917;-62
2021/05/24 01:58:16;;;;;;;;;;;7.30;99.90;;;;;;5042076;28;20051;-63
2021/05/24 02:00:42;;;;;;;3.55;0.80;;;7.30;99.90;;;;;;5029118;28;19917;-60
2021/05/24 02:03:08;;;;;;;;;;;7.40;99.90;;;;;;5031129;28;20045;-64
2021/05/24 02:05:34;;;;;;;1.73;0.65;;;7.30;99.90;;;;;;5029453;28;20465;-59
2021/05/24 02:08:00;;;;;;;4.97;0.75;;;7.30;99.90;;;;;;5038144;28;20041;-58
2021/05/24 02:10:30;;;;;;;;;;;7.20;99.90;;;;;;5042854;28;20040;-54
2021/05/24 02:12:56;;;;;;;2.17;0.88;;;7.30;99.90;;;;;;5049855;28;19927;-57
2021/05/24 02:15:23;;;;;;;;;;;7.30;99.90;;;;;;5049687;28;20048;-57
2021/05/24 02:17:49;;;;;;;2.28;1.00;;;7.40;99.90;;;;;;5049997;28;20353;-59
2021/05/24 02:20:22;;;;;;;;;;;7.30;99.90;;;;;;5050585;28;20051;-58
2021/05/24 02:22:48;;;;;;;2.60;0.60;;;7.30;99.90;;;;;;5037440;28;19924;-59
2021/05/24 02:25:13;;;;;;;;;;;7.30;99.90;;;;;;5010139;28;20046;-59
2021/05/24 02:27:39;;;;;;;1.70;0.80;;;7.30;99.90;;;;;;5028301;28;19923;-58
2021/05/24 02:30:06;;;;;;;;;;;7.30;99.90;;;;;;5041988;28;20131;-59
2021/05/24 02:32:32;;;;;;;4.03;1.93;;;7.30;99.90;;;;;;5043079;28;19964;-57
2021/05/24 02:34:58;;;;;;;1.60;0.70;;;7.20;99.90;;;;;;5029339;28;20284;-57
2021/05/24 02:37:24;;;;;;;;;;;7.20;99.90;;;;;;5030070;28;20051;-59
2021/05/24 02:39:49;;;;;;;3.45;0.95;;;7.10;99.90;;;;;;5029903;28;19920;-58
2021/05/24 02:42:15;;;;;;;;;;;7.10;99.90;;;;;;5029713;28;20046;-59
2021/05/24 02:44:41;;;;;;;1.10;0.70;;;7.10;99.90;;;;;;5029414;28;19925;-59
2021/05/24 02:47:06;;;;;;;4.88;1.02;;;7.10;99.90;;;;;;5029226;28;20484;-60
2021/05/24 02:49:32;;;;;;;;;;;7.10;99.90;;;;;;5030046;28;20037;-60
2021/05/24 02:51:57;;;;;;;6.07;0.82;;;7.10;99.90;;;;;;5029101;28;20004;-59
2021/05/24 02:54:23;;;;;;;;;;;7.20;99.90;;;;;;5035596;28;20405;-59
2021/05/24 02:56:48;;;;;;;3.78;0.60;;;7.20;99.90;;;;;;5029573;28;19921;-59
2021/05/24 02:59:14;;;;;;;;;;;7.20;99.90;;;;;;5028215;28;20045;-59
2021/05/24 03:01:39;;;;;;;1.33;0.80;;;7.20;99.90;;;;;;5028854;28;19917;-59
2021/05/24 03:04:07;;;;;;;;;;;7.20;99.90;;;;;;5029333;28;20486;-62
2021/05/24 03:06:34;;;;;;;1.13;0.63;;;7.20;99.90;;;;;;5029167;28;19929;-62
2021/05/24 03:08:59;;;;;;;3.72;1.02;;;7.30;99.90;;;;;;5029072;28;20076;-62
2021/05/24 03:11:25;;;;;;;;;;;7.30;99.90;;;;;;5029991;28;20450;-62
2021/05/24 03:13:51;;;;;;;2.67;0.60;;;7.30;99.90;;;;;;5029847;28;19917;-63
2021/05/24 03:16:17;;;;;;;;;;;7.30;99.90;;;;;;5029244;28;20042;-61
2021/05/24 03:18:43;;;;;;;5.70;1.03;;;7.30;99.90;;;;;;5029238;28;19921;-61
2021/05/24 03:21:08;;;;;;;;;;;7.30;99.90;;;;;;5030925;28;20695;-63
2021/05/24 03:23:34;;;;;;;3.28;0.77;;;7.30;99.90;;;;;;5032992;28;20270;-60
2021/05/24 03:26:00;;;;;;;;;;;7.30;99.90;;;;;;5029255;28;20041;-60
2021/05/24 03:28:25;;;;;;;3.92;0.93;;;7.30;99.90;;;;;;5036750;28;19927;-60
2021/05/24 03:30:51;;;;;;;;;;;7.20;99.90;;;;;;5045449;28;20033;-60
2021/05/24 03:33:16;;;;;;;6.13;0.70;;;7.20;99.90;;;;;;5036783;28;19942;-60
2021/05/24 03:35:42;;;;;;;;;;;7.10;99.90;;;;;;5028752;28;20095;-61
2021/05/24 03:38:07;;;;;;;5.07;0.90;;;7.10;99.90;;;;;;5029219;28;19983;-60
2021/05/24 03:40:33;;;;;;;;;;;7.20;99.90;;;;;;5029191;28;20041;-59
2021/05/24 03:42:59;;;;;;;5.90;1.05;;;7.20;99.90;;;;;;5029442;28;19924;-60
2021/05/24 03:45:27;;;;;;;;;;;7.10;99.90;;;;;;5034859;28;20116;-60
2021/05/24 03:47:53;;;;;;;6.68;0.88;;;7.20;99.90;;;;;;5040577;28;20011;-62
2021/05/24 03:50:20;;;;;;;3.75;1.00;;;7.20;99.90;;;;;;5040946;28;20041;-61
2021/05/24 03:52:46;;;;;;;2.95;0.90;;;7.70;99.90;;;;;;5049189;28;20472;-57
2021/05/24 03:55:14;;;;;;;3.28;0.60;;;8.50;99.90;;;;;;5047124;28;20041;-62
2021/05/24 03:57:40;;;;;;;1.85;0.68;;;9.30;99.90;;;;;;5040660;28;20045;-61
2021/05/24 04:00:08;;;;;;;6.65;1.35;;;9.90;99.90;;;;;;5050306;28;20037;-58
2021/05/24 04:02:34;;;;;;;1.48;0.52;;;10.50;99.90;;;;;;5050628;28;20498;-56
2021/05/24 04:05:03;;;;;;;;;;;10.70;99.90;;;;;;5052711;28;20072;-60
2021/05/24 04:07:28;;;;;;;1.85;0.70;;;10.50;99.90;;;;;;5052208;28;19932;-58
2021/05/24 04:09:54;;;;;;;;;;;10.20;99.90;;;;;;5052291;28;20041;-54
2021/05/24 04:12:20;;;;;;;3.22;0.88;;;10.00;99.90;;;;;;5052355;28;19916;-52
2021/05/24 04:14:45;;;;;;;;;;;9.70;99.90;;;;;;5051946;28;20802;-54
2021/05/24 04:17:14;;;;;;;2.97;0.80;;;9.60;99.90;;;;;;5051497;28;19917;-57
2021/05/24 04:19:42;;;;;;;1.75;0.88;;;10.40;99.90;;;;;;5052244;28;20045;-59
2021/05/24 04:22:08;;;;;;;2.28;0.70;;;11.70;98.90;;;;;;5051557;28;20044;-58
2021/05/24 04:24:34;;;;;;;;;;;12.70;96.40;;;;;;5052422;28;20120;-59
2021/05/24 04:26:59;;;;;;;4.70;0.50;;;13.20;95.40;;;;;;5045030;28;19968;-59
2021/05/24 04:29:24;;;;;;;;;;;13.60;94.10;;;;;;5058706;28;20073;-59
2021/05/24 04:31:50;;;;;;;3.20;0.75;;;14.70;92.10;;;;;;5051266;28;19994;-58
2021/05/24 04:34:16;;;;;;;;;;;15.00;90.20;;;;;;5030346;28;20034;-60
2021/05/24 04:36:41;;;;;;;3.05;0.65;;;13.90;91.50;;;;;;5031375;28;20047;-60
2021/05/24 04:39:07;;;;;;;;;;;13.00;92.40;;;;;;5031253;28;20562;-58
2021/05/24 04:41:32;;;;;;;2.88;0.77;;;12.70;94.00;;;;;;5031449;28;20334;-61
2021/05/24 04:44:09;;;;;;;;;;;13.40;92.70;;;;;;5032171;28;20030;-60
2021/05/24 04:46:35;;;;;;;4.45;0.68;;;13.60;91.90;;;;;;5030718;28;19931;-67
2021/05/24 04:49:00;;;;;;;;;;;13.10;93.60;;;;;;5040495;28;20509;-62
2021/05/24 04:51:26;;;;;;;3.70;0.80;;;12.60;93.10;;;;;;5043277;28;20004;-64
2021/05/24 04:53:52;;;;;;;5.20;0.70;;;12.20;94.70;;;;;;5034045;28;20049;-62
2021/05/24 04:56:17;;;;;;;;;;;12.10;95.60;;;;;;5040684;28;20041;-63
2021/05/24 04:58:43;;;;;;;3.10;1.13;;;12.10;95.00;;;;;;5039480;28;20004;-64
2021/05/24 05:01:08;;;;;;;;;;;12.00;95.50;;;;;;5040155;28;20045;-61
2021/05/24 05:03:34;;;;;;;3.78;0.70;;;12.00;95.10;;;;;;5047492;28;19923;-65
2021/05/24 05:06:00;;;;;;;;;;;12.40;95.30;;;;;;5043326;28;20052;-63
2021/05/24 05:08:25;;;;;;;3.55;0.80;;;14.00;92.50;;;;;;5051406;28;20395;-62
2021/05/24 05:10:51;;;;;;;;;;;15.30;89.50;;;;;;5052011;28;20087;-63
2021/05/24 05:13:16;;;;;;;3.42;1.02;;;16.50;82.40;;;;;;5051563;28;19970;-62
2021/05/24 05:15:42;;;;;;;2.47;0.85;;;17.80;77.20;;;;;;5050530;28;20041;-62
2021/05/24 05:18:08;;;;;;;;;;;19.00;71.80;;;;;;5045245;28;20401;-61
2021/05/24 05:20:33;;;;;;;3.17;0.95;;;19.60;67.10;;;;;;5042887;28;20011;-61
2021/05/24 05:22:59;;;;;;;2.47;0.80;;;20.40;61.90;;;;;;5036916;22;20052;-61
2021/05/24 05:25:24;;;;;;;3.45;0.85;;;20.20;62.60;;;;;;5071215;28;20060;-61
2021/05/24 05:27:50;;;;;;;3.92;0.80;;;19.10;62.40;;;;;;5063309;28;20172;-64
2021/05/24 05:30:16;;;;;;;2.00;0.73;;;18.90;66.60;;;;;;5064008;28;20055;-64
2021/05/24 05:32:41;;;;;;;3.97;0.73;;;18.90;65.10;;;;;;5054739;28;20040;-64
2021/05/24 05:35:07;;;;;;;3.20;1.08;;;19.00;66.00;;;;;;5051860;28;20029;-61
2021/05/24 05:37:33;;;;;;;1.52;0.60;;;19.40;63.30;;;;;;5056921;28;20033;-61
2021/05/24 05:39:59;;;;;;;1.95;0.80;;;19.60;62.20;;;;;;5051363;28;20044;-60
2021/05/24 05:42:25;;;;;;;3.80;0.75;;;19.30;61.10;;;;;;5054969;22;20076;-72
2021/05/24 05:44:51;;;;;;;1.50;0.55;;;19.50;62.20;;;;;;5034883;28;20044;-72
2021/05/24 05:47:17;;;;;;;1.90;0.80;;;19.40;60.40;;;;;;5034247;28;20465;-71
2021/05/24 05:49:47;;;;;;;3.53;0.50;;;18.70;62.70;;;;;;5034547;28;20135;-71
2021/05/24 05:52:17;;;;;;;6.53;1.70;;;18.80;65.10;;;;;;5035217;28;20091;-72
2021/05/24 05:54:45;;;;;;;3.13;0.88;;;18.70;63.20;;;;;;5035240;28;20044;-73
2021/05/24 05:57:11;;;;;;;2.15;0.80;;;19.00;63.70;;;;;;5032438;28;20043;-73
2021/05/24 05:59:37;;;;;;;2.95;1.38;;;19.50;60.10;;;;;;5040719;28;20047;-73
2021/05/24 06:02:03;;;;;;;6.10;0.90;;;20.00;61.60;;;;;;5014404;28;20038;-71
2021/05/24 06:04:29;;;;;;;6.80;0.90;;;20.30;59.00;;;;;;5014550;28;20046;-71
2021/05/24 06:06:55;;;;;;;2.20;0.80;;;20.60;57.70;;;;;;5014392;28;20046;-72
2021/05/24 06:09:20;;;;;;;3.97;0.95;;;21.00;57.20;;;;;;5017390;28;20041;-71
2021/05/24 06:11:47;;;;;;;3.53;0.70;;;21.30;55.50;;;;;;5023783;28;20121;-71
2021/05/24 06:14:13;;;;;;;1.33;0.90;;;21.30;53.70;;;;;;5014450;28;20033;-72
2021/05/24 06:16:39;;;;;;;2.65;0.75;;;20.20;55.40;;;;;;5017776;28;20078;-78
2021/05/24 06:19:04;;;;;;;3.55;0.85;;;19.20;59.70;;;;;;5026216;28;20044;-75
2021/05/24 06:21:31;;;;;;;4.07;0.70;;;18.10;62.20;;;;;;5030755;28;20080;-77
2021/05/24 06:23:58;;;;;;;1.02;0.47;;;17.40;64.30;;;;;;5023734;28;20042;-77
2021/05/24 06:26:24;;;;;;;1.88;0.73;;;17.40;64.70;;;;;;5039616;28;20041;-73
2021/05/24 06:28:49;;;;;;;4.22;0.98;;;17.20;66.30;;;;;;5025687;28;20106;-73
2021/05/24 06:31:16;;;;;;;4.53;0.90;;;18.00;64.80;;;;;;5024742;28;20030;-72
2021/05/24 06:33:42;;;;;;;3.47;0.85;;;19.20;60.60;;;;;;5029007;28;20041;-72
2021/05/24 06:36:07;;;;;;;4.75;1.42;;;20.00;59.50;;;;;;5026252;28;20048;-73
2021/05/24 06:38:33;;;;;;;5.70;0.60;;;19.90;57.50;;;;;;5034755;28;20100;-74
2021/05/24 06:40:59;;;;;;;3.50;0.98;;;20.90;57.60;;;;;;5030325;28;20083;-74
2021/05/24 06:43:25;;;;;;;2.15;0.60;;;20.90;53.70;;;;;;5043115;28;20051;-73
2021/05/24 06:45:50;;;;;;;4.07;0.65;;;20.70;55.10;;;;;;5037883;28;20034;-74
2021/05/24 06:48:16;;;;;;;3.75;0.90;;;20.50;55.60;;;;;;5031047;28;20049;-74
2021/05/24 06:50:42;;;;;;;1.92;0.60;;;19.20;57.30;;;;;;5031020;28;20095;-74
2021/05/24 06:53:07;;;;;;;1.30;0.65;;;18.40;60.70;;;;;;5031604;28;20048;-72
2021/05/24 06:55:33;;;;;;;1.48;0.50;;;17.80;63.40;;;;;;5042885;28;20112;-71
2021/05/24 06:57:59;;;;;;;0.90;0.63;;;18.70;65.20;;;;;;5023674;28;20041;-74
2021/05/24 07:00:25;;;;;;;1.75;0.57;;;19.40;57.80;;;;;;5024634;28;20080;-73
2021/05/24 07:02:50;;;;;;;3.85;1.00;;;19.30;57.70;;;;;;5026577;28;20041;-73
2021/05/24 07:05:16;;;;;;;2.60;0.70;;;19.50;59.40;;;;;;5024402;28;20044;-74
2021/05/24 07:07:42;;;;;;;2.42;0.82;;;19.70;59.20;;;;;;5033570;28;20048;-73
2021/05/24 07:10:08;;;;;;;2.55;0.80;;;19.30;58.50;;;;;;5033510;28;20037;-73
2021/05/24 07:12:34;;;;;;;2.53;0.70;;;18.90;61.10;;;;;;5033324;28;20048;-71
2021/05/24 07:15:03;;;;;;;5.30;0.73;;;19.30;60.80;;;;;;5033941;28;20048;-69
2021/05/24 07:17:30;;;;;;;4.68;0.75;;;19.80;55.90;;;;;;5028833;28;20116;-74
2021/05/24 07:19:56;;;;;;;3.33;0.68;;;19.80;58.30;;;;;;5031960;28;20511;-73
2021/05/24 07:22:21;;;;;;;4.03;0.70;;;19.70;56.60;;;;;;5016281;28;20120;-73
2021/05/24 07:24:47;;;;;;;2.22;0.82;;;20.50;55.00;;;;;;5033823;28;20393;-72
2021/05/24 07:27:13;;;;;;;3.42;0.60;;;21.00;53.60;;;;;;5033476;28;20047;-72
2021/05/24 07:29:39;;;;;;;4.63;0.77;;;22.00;53.70;;;;;;5028766;28;20041;-74
2021/05/24 07:32:10;;;;;;;4.60;1.00;;;23.20;49.70;;;;;;5034644;28;20033;-73
2021/05/24 07:34:37;;;;;;;2.67;0.90;;;24.00;47.10;;;;;;5017835;28;20076;-72
2021/05/24 07:37:03;;;;;;;1.90;0.57;;;24.40;44.40;;;;;;5020343;28;20041;-72
2021/05/24 07:39:29;;;;;;;1.90;0.60;;;24.60;45.90;;;;;;5034837;28;20049;-72
2021/05/24 07:41:59;;;;;;;2.95;0.90;;;25.10;43.80;;;;;;5026392;28;20047;-75
2021/05/24 07:44:26;;;;;;;2.92;0.63;;;25.30;40.50;;;;;;5027126;28;20041;-78
2021/05/24 07:46:51;;;;;;;1.65;0.50;;;25.40;42.20;;;;;;5023030;28;20041;-70
2021/05/24 07:49:18;;;;;;;2.30;0.65;;;25.60;41.60;;;;;;5023475;28;20037;-76
2021/05/24 07:51:44;;;;;;;2.83;0.60;;;26.60;40.60;;;;;;5049822;28;20118;-75
2021/05/24 07:54:10;;;;;;;2.10;0.63;;;27.00;37.00;;;;;;5036314;28;20041;-75
2021/05/24 07:56:35;;;;;;;2.45;0.63;;;27.90;37.50;;;;;;5036703;28;20090;-75
2021/05/24 07:59:01;;;;;;;2.75;0.70;;;27.80;35.60;;;;;;5046263;28;20044;-75
2021/05/24 08:01:27;;;;;;;0.77;0.50;;;28.80;37.40;;;;;;5016821;28;20087;-76
2021/05/24 08:03:53;;;;;;;0.98;0.40;;;29.00;32.30;;;;;;5020261;28;20037;-76
2021/05/24 08:06:18;;;;;;;2.30;0.57;;;28.70;32.00;;;;;;5020555;28;20049;-73
2021/05/24 08:08:46;;;;;;;2.95;0.75;;;28.20;31.90;;;;;;5052510;28;20056;-75
2021/05/24 08:11:16;;;;;;;0.60;0.38;;;28.00;32.20;;;;;;5028278;28;20079;-75
2021/05/24 08:13:42;;;;;;;2.20;0.70;;;28.70;34.70;;;;;;5033164;28;20505;-76
2021/05/24 08:16:10;;;;;;;3.28;0.93;;;29.00;33.80;;;;;;5028181;28;20039;-75
2021/05/24 08:18:36;;;;;;;1.90;0.90;;;28.30;33.10;;;;;;5026660;28;20040;-75
2021/05/24 08:21:04;;;;;;;1.33;0.47;;;28.20;34.70;;;;;;5042554;28;20389;-77
2021/05/24 08:23:30;;;;;;;2.35;0.70;;;28.50;34.50;;;;;;5035419;28;20049;-76
2021/05/24 08:25:55;;;;;;;2.47;0.77;;;28.10;33.80;;;;;;5036918;28;20048;-76
2021/05/24 08:28:21;;;;;;;1.10;0.57;;;28.60;32.60;;;;;;5033661;28;20037;-76
2021/05/24 08:30:47;;;;;;;1.48;0.50;;;27.90;30.70;;;;;;5046138;28;20037;-76
2021/05/24 08:33:13;;;;;;;0.43;0.40;;;27.10;33.30;;;;;;5043907;28;20032;-76
2021/05/24 08:35:38;;;;;;;2.50;0.60;;;26.30;35.60;;;;;;5024219;28;20096;-76
2021/05/24 08:38:04;;;;;;;2.47;0.70;;;26.00;36.70;;;;;;5028389;28;20052;-76
2021/05/24 08:40:30;;;;;;;1.80;0.47;;;25.90;35.40;;;;;;5029779;28;20037;-76
2021/05/24 08:42:58;;;;;;;2.20;0.60;;;26.30;36.80;;;;;;5033336;28;20088;-74
2021/05/24 08:45:29;;;;;;;5.63;0.70;;;26.90;35.80;;;;;;5023085;28;20053;-74
2021/05/24 08:47:56;;;;;;;1.17;0.50;;;27.00;34.80;;;;;;5024620;28;20049;-74
2021/05/24 08:50:21;;;;;;;1.00;0.80;;;26.00;35.00;;;;;;5032736;28;20124;-73
2021/05/24 08:52:47;;;;;;;3.90;0.82;;;25.30;36.20;;;;;;5027975;28;20137;-75
2021/05/24 08:55:14;;;;;;;1.83;0.80;;;25.20;39.20;;;;;;5032347;28;20041;-74
2021/05/24 08:57:42;;;;;;;1.83;0.60;;;24.20;38.10;;;;;;5046811;28;20033;-74
2021/05/24 09:00:11;;;;;;;3.03;0.60;;;23.30;43.40;;;;;;5024392;28;20398;-73
2021/05/24 09:02:45;;;;;;;1.48;0.60;;;22.30;44.70;;;;;;5019488;28;20038;-75
2021/05/24 09:05:12;;;;;;;5.60;0.80;;;21.20;45.80;;;;;;5033468;28;20184;-74
2021/05/24 09:07:53;;;;;;;4.82;0.70;;;20.60;46.40;;;;;;5015504;28;20094;-74
2021/05/24 09:10:20;;;;;;;2.45;0.68;;;20.30;49.20;;;;;;5020694;28;20482;-75
2021/05/24 09:12:46;;;;;;;5.30;0.82;;;20.10;48.00;;;;;;5044730;28;20108;-75
2021/05/24 09:15:15;;;;;;;3.22;0.60;;;19.80;49.80;;;;;;5033486;28;20041;-74
2021/05/24 09:18:00;;;;;;;4.72;0.85;;;19.60;51.30;;;;;;5030904;28;20045;-74
2021/05/24 09:20:29;;;;;;;1.00;0.63;;;19.20;50.00;;;;;;5043693;28;20052;-74
2021/05/24 09:23:25;;;;;;;1.40;0.50;;;18.80;49.70;;;;;;5035416;28;20041;-74
2021/05/24 09:26:00;;;;;;;2.25;0.60;;;18.30;51.80;;;;;;5027957;28;20042;-74
2021/05/24 09:28:27;;;;;;;1.50;0.65;;;18.20;53.30;;;;;;5030365;28;20037;-74
2021/05/24 09:31:09;;;;;;;2.17;0.40;;;18.10;52.80;;;;;;5030229;28;20119;-74
2021/05/24 09:33:36;;;;;;;3.13;0.75;;;17.90;53.10;;;;;;5033158;28;20527;-73
2021/05/24 09:36:04;;;;;;;1.52;0.68;;;17.50;53.10;;;;;;5032985;28;20045;-74
2021/05/24 09:38:40;;;;;;;2.28;0.35;;;17.10;52.20;;;;;;5029926;28;20049;-74
2021/05/24 09:41:07;;;;;;;1.35;0.60;;;17.00;53.30;;;;;;5016384;28;20103;-74
2021/05/24 09:43:36;;;;;;;3.10;0.70;;;17.30;54.60;;;;;;5018736;28;20047;-73
2021/05/24 09:46:17;;;;;;;1.60;0.70;;;17.10;52.60;;;;;;5035538;28;20127;-74
2021/05/24 09:48:46;;;;;;;3.28;0.50;;;17.00;53.10;;;;;;5034781;28;20090;-74
2021/05/24 09:51:14;;;;;;;2.00;0.95;;;17.00;53.90;;;;;;5033430;28;20044;-74
2021/05/24 09:53:53;;;;;;;1.85;0.80;;;17.40;53.80;;;;;;5049038;28;20076;-74
2021/05/24 09:56:19;;;;;;;3.65;1.38;;;17.50;54.60;;;;;;5018587;28;20064;-74
2021/05/24 09:58:45;;;;;;;;;;;17.50;55.70;;;;;;5026931;28;20156;-76
2021/05/24 10:01:19;;;;;;;2.30;0.82;;;17.50;55.30;;;;;;5021872;28;19916;-75
2021/05/24 10:03:48;;;;;;;1.90;0.50;;;17.50;56.70;;;;;;5026297;28;20049;-75
2021/05/24 10:06:14;;;;;;;3.47;0.63;;;17.50;55.80;;;;;;5018112;28;20049;-74
2021/05/24 10:08:41;;;;;;;;;;;17.60;55.50;;;;;;5019564;28;20458;-76
2021/05/24 10:11:13;;;;;;;2.28;0.70;;;17.40;55.70;;;;;;5030152;28;20370;-74
2021/05/24 10:13:38;;;;;;;;;;;17.20;55.60;;;;;;5020698;28;20048;-79
2021/05/24 10:16:10;;;;;;;6.70;4.07;;;17.10;57.20;;;;;;5013500;28;19923;-73
2021/05/24 10:18:36;;;;;;;1.65;0.90;;;17.10;57.50;;;;;;5034215;28;20517;-73
2021/05/24 10:21:02;;;;;;;;;;;17.40;56.50;;;;;;5024958;28;20046;-74
2021/05/24 10:23:35;;;;;;;6.32;0.98;;;17.70;57.00;;;;;;5030777;28;19970;-76
2021/05/24 10:26:03;;;;;;;3.08;0.80;;;17.90;55.50;;;;;;5025654;28;20478;-74
2021/05/24 10:28:31;;;;;;;3.35;0.90;;;17.90;55.10;;;;;;5042118;28;20486;-74
2021/05/24 10:30:59;;;;;;;3.95;2.72;;;17.60;54.00;;;;;;5033290;28;20037;-73
2021/05/24 10:33:37;;;;;;;1.73;1.25;;;17.50;55.70;;;;;;5027632;28;20496;-74
2021/05/24 10:36:32;;;;;;;1.88;0.85;;;17.90;56.10;;;;;;5041747;28;20041;-74
2021/05/24 10:39:07;;;;;;;2.00;0.80;;;17.90;55.50;;;;;;5011280;28;20053;-74
2021/05/24 10:42:00;;;;;;;2.13;0.57;;;17.70;55.60;;;;;;5034121;28;20464;-74
2021/05/24 10:44:37;;;;;;;5.05;2.47;;;18.00;58.40;;;;;;5034303;28;20128;-74
2021/05/24 10:47:25;;;;;;;2.47;0.82;;;18.00;56.40;;;;;;5027565;28;20047;-73
2021/05/24 10:50:05;;;;;;;0.98;0.63;;;18.00;53.80;;;;;;5027201;28;20045;-73
2021/05/24 10:52:39;;;;;;;3.85;0.70;;;17.80;53.80;;;;;;5024402;28;20076;-73
2021/05/24 10:55:27;;;;;;;4.85;1.90;;;18.00;57.00;;;;;;5025261;28;20037;-73
2021/05/24 10:57:57;;;;;;;2.15;0.68;;;18.40;54.60;;;;;;5023702;28;20429;-74
2021/05/24 11:00:24;;;;;;;0.95;0.50;;;18.70;53.70;;;;;;5021569;28;20051;-75
2021/05/24 11:02:55;;;;;;;1.65;0.40;;;18.60;50.40;;;;;;5032948;28;20485;-74
2021/05/24 11:05:30;;;;;;;3.30;0.63;;;18.60;51.50;;;;;;5025013;28;20041;-76
2021/05/24 11:08:11;;;;;;;1.38;0.50;;;18.60;52.20;;;;;;5047594;28;20505;-75
2021/05/24 11:10:41;;;;;;;0.68;0.35;;;18.60;53.20;;;;;;5017575;28;20088;-74
2021/05/24 11:13:09;;;;;;;2.08;0.60;;;18.60;52.00;;;;;;5026956;28;20076;-75
2021/05/24 11:15:40;;;;;;;1.95;0.60;;;18.60;50.80;;;;;;5030380;28;20048;-74
2021/05/24 11:18:06;;;;;;;2.22;0.50;;;18.80;49.20;;;;;;5038166;28;20037;-74
2021/05/24 11:20:32;;;;;;;;;;;18.60;48.10;;;;;;5023740;28;20124;-76
2021/05/24 11:26:14;;;;;;;2.45;0.75;;;18.60;49.90;;;;;;5040850;28;20037;-76
2021/05/24 11:28:49;;;;;;;4.63;0.70;;;18.60;48.10;;;;;;5025202;28;20044;-73
2021/05/24 11:31:22;;;;;;;2.08;0.50;;;18.50;45.90;;;;;;5021636;28;20057;-73
2021/05/24 11:33:54;;;;;;;2.97;0.90;;;18.50;48.10;;;;;;5015300;28;20132;-74
2021/05/24 11:36:42;;;;;;;3.03;0.60;;;18.50;47.10;;;;;;5043267;28;20068;-74
2021/05/24 11:39:17;;;;;;;3.42;1.13;;;18.70;49.90;;;;;;5037882;28;20044;-73
2021/05/24 11:41:51;;;;;;;0.90;0.50;;;18.70;48.20;;;;;;5030213;28;20045;-74
2021/05/24 11:44:33;;;;;;;1.95;0.70;;;18.90;50.50;;;;;;5048198;28;20038;-72
2021/05/24 11:47:00;;;;;;;1.92;0.57;;;19.00;49.00;;;;;;5046975;28;20049;-75
2021/05/24 11:49:35;;;;;;;2.35;0.50;;;19.00;46.80;;;;;;5050167;28;20036;-72
2021/05/24 11:52:07;;;;;;;3.42;0.50;;;19.00;48.20;;;;;;5049687;28;20055;-71
2021/05/24 11:54:33;;;;;;;2.38;0.70;;;18.80;48.60;;;;;;5025484;28;20037;-75
2021/05/24 11:57:03;;;;;;;2.42;0.50;;;18.90;49.70;;;;;;5021775;28;20121;-75
2021/05/24 11:59:32;;;;;;;0.63;0.40;;;18.60;48.10;;;;;;5025949;28;20128;-76
2021/05/24 12:01:59;;;;;;;6.68;1.58;;;18.60;49.90;;;;;;5027155;28;20033;-75
2021/05/24 12:04:45;;;;;;;5.50;0.73;;;18.80;49.70;;;;;;5021867;28;20037;-75
2021/05/24 12:07:14;;;;;;;1.80;0.52;;;18.60;48.10;;;;;;5032834;28;20422;-76
2021/05/24 12:09:43;;;;;;;1.20;0.55;;;18.40;49.10;;;;;;5022211;28;20050;-75
2021/05/24 12:12:25;;;;;;;2.05;0.50;;;18.20;48.60;;;;;;5015140;28;20044;-84
2021/05/24 12:14:56;;;;;;;5.18;0.75;;;18.10;50.10;;;;;;5038714;28;20033;-77
2021/05/24 12:17:27;;;;;;;8.02;1.05;;;18.00;49.70;;;;;;5043132;28;20064;-78
2021/05/24 12:19:54;;;;;;;66.93;2.90;;;18.10;49.60;;;;;;5021130;28;20685;-77
2021/05/24 12:22:23;;;;;;;7.95;0.77;;;18.40;50.30;;;;;;5036827;28;20517;-75
2021/05/24 12:24:50;;;;;;;5.35;0.70;;;18.50;49.50;;;;;;5031673;28;20045;-75
2021/05/24 12:27:19;;;;;;;9.15;0.90;;;18.70;49.40;;;;;;5034017;28;20505;-76
2021/05/24 12:29:51;;;;;;;3.33;0.73;;;18.30;46.30;;;;;;5021822;28;20132;-76
2021/05/24 12:32:28;;;;;;;5.93;0.82;;;18.10;48.50;;;;;;5032289;28;20033;-79
2021/05/24 12:34:54;;;;;;;3.08;1.02;;;18.00;48.60;;;;;;5029282;28;20117;-80
2021/05/24 12:37:21;;;;;;;3.60;1.50;;;18.00;48.90;;;;;;5016641;28;20048;-79
2021/05/24 12:39:48;;;;;;;2.38;1.10;;;18.00;47.90;;;;;;5023977;28;20048;-78
2021/05/24 12:42:15;;;;;;;4.45;2.40;;;17.80;48.10;;;;;;5033959;28;20033;-74
2021/05/24 12:44:41;;;;;;;7.20;2.83;;;17.80;50.00;;;;;;5024661;28;20045;-78
2021/05/24 12:47:16;;;;;;;;;;;17.60;49.30;;;;;;5001820;28;20046;-77
2021/05/24 12:49:44;;;;;;;4.60;0.50;;;17.50;48.30;;;;;;5046169;28;19971;-75
2021/05/24 12:52:11;;;;;;;2.95;0.70;;;17.60;48.40;;;;;;5027788;28;20037;-76
2021/05/24 12:54:43;;;;;;;2.13;0.68;;;17.60;51.00;;;;;;5024064;28;20117;-75
2021/05/24 12:57:10;;;;;;;3.22;0.70;;;17.50;49.50;;;;;;5027578;28;20056;-75
2021/05/24 12:59:49;;;;;;;2.90;0.63;;;17.40;50.50;;;;;;5026417;28;20049;-75
2021/05/24 13:02:23;;;;;;;1.58;0.73;;;17.30;50.10;;;;;;5032172;28;20049;-76
2021/05/24 13:04:49;;;;;;;4.47;0.50;;;17.30;52.20;;;;;;5031105;28;20041;-76
2021/05/24 13:07:16;;;;;;;;;;;17.20;52.20;;;;;;5029113;28;20041;-77
2021/05/24 13:09:45;;;;;;;7.07;1.52;;;17.10;52.80;;;;;;5029409;28;20007;-77
2021/05/24 13:12:22;;;;;;;3.25;0.70;;;17.10;54.20;;;;;;5024026;28;20040;-78